createdAt,value
2018-08-17T00:00:07.929Z,6.10
2018-08-17T00:02:36.460Z,6.60
2018-08-17T00:05:04.936Z,6.70
2018-08-17T00:07:33.510Z,6.07
2018-08-17T00:10:02.071Z,6.53
2018-08-17T00:12:30.529Z,6.20
2018-08-17T00:14:59.036Z,6.40
2018-08-17T00:17:27.609Z,6.73
2018-08-17T00:19:56.091Z,6.03
2018-08-17T00:22:24.574Z,6.33
2018-08-17T00:24:53.093Z,5.87
2018-08-17T00:27:21.813Z,5.80
2018-08-17T00:29:50.286Z,6.20
2018-08-17T00:32:19.149Z,6.10
2018-08-17T00:34:47.618Z,4.40
2018-08-17T00:37:16.237Z,5.23
2018-08-17T00:39:48.304Z,4.80
2018-08-17T00:42:16.862Z,4.73
2018-08-17T00:44:45.292Z,4.83
2018-08-17T00:47:13.725Z,4.50
2018-08-17T00:49:42.171Z,4.73
2018-08-17T00:52:10.589Z,5.03
2018-08-17T00:54:39.036Z,4.83
2018-08-17T00:57:07.532Z,5.90
2018-08-17T00:59:35.964Z,5.80
2018-08-17T01:02:04.529Z,5.03
2018-08-17T01:04:32.957Z,6.00
2018-08-17T01:07:01.708Z,6.67
2018-08-17T01:09:30.202Z,6.30
2018-08-17T01:11:58.652Z,7.97
2018-08-17T01:14:27.226Z,7.63
2018-08-17T01:16:55.651Z,7.97
2018-08-17T01:19:24.194Z,9.67
2018-08-17T01:21:52.621Z,7.37
2018-08-17T01:24:21.050Z,9.97
2018-08-17T01:26:49.676Z,8.17
2018-08-17T01:29:18.227Z,8.30
2018-08-17T01:31:46.813Z,8.57
2018-08-17T01:34:15.274Z,10.43
2018-08-17T01:36:43.800Z,11.27
2018-08-17T01:39:12.262Z,9.67
2018-08-17T01:41:40.723Z,7.97
2018-08-17T01:44:09.167Z,6.93
2018-08-17T01:46:37.598Z,7.77
2018-08-17T01:49:06.038Z,7.37
2018-08-17T01:51:34.469Z,6.97
2018-08-17T01:54:03.021Z,9.03
2018-08-17T01:56:31.514Z,4.37
2018-08-17T01:58:59.989Z,5.67
2018-08-17T02:01:28.440Z,5.33
2018-08-17T02:03:57.003Z,8.43
2018-08-17T02:06:25.567Z,10.07
2018-08-17T02:08:54.145Z,7.00
2018-08-17T02:11:22.713Z,7.07
2018-08-17T02:13:51.136Z,6.60
2018-08-17T02:16:19.672Z,6.70
2018-08-17T02:18:48.300Z,6.47
2018-08-17T02:21:16.771Z,6.63
2018-08-17T02:23:45.297Z,6.87
2018-08-17T02:26:13.729Z,6.17
2018-08-17T02:28:42.286Z,6.03
2018-08-17T02:31:10.716Z,6.17
2018-08-17T02:33:39.259Z,5.63
2018-08-17T02:36:07.829Z,5.10
2018-08-17T02:38:36.304Z,5.27
2018-08-17T02:41:04.778Z,7.00
2018-08-17T02:43:33.250Z,7.87
2018-08-17T02:46:01.766Z,6.33
2018-08-17T02:48:30.311Z,6.17
2018-08-17T02:50:58.744Z,5.23
2018-08-17T02:53:27.170Z,6.03
2018-08-17T02:55:55.702Z,6.20
2018-08-17T02:58:24.144Z,6.00
2018-08-17T03:00:52.552Z,6.30
2018-08-17T03:03:20.999Z,6.20
2018-08-17T03:05:49.512Z,6.43
2018-08-17T03:08:17.931Z,6.43
2018-08-17T03:10:46.380Z,7.00
2018-08-17T03:13:14.792Z,6.40
2018-08-17T03:15:43.230Z,6.40
2018-08-17T03:18:11.663Z,6.50
2018-08-17T03:20:40.121Z,6.93
2018-08-17T03:23:08.539Z,6.53
2018-08-17T03:25:36.960Z,6.70
2018-08-17T03:28:05.773Z,7.23
2018-08-17T03:30:34.371Z,7.40
2018-08-17T03:33:02.788Z,7.40
2018-08-17T03:35:31.216Z,7.30
2018-08-17T03:37:59.783Z,8.43
2018-08-17T03:40:28.202Z,7.60
2018-08-17T03:42:56.660Z,7.53
2018-08-17T03:45:25.092Z,8.47
2018-08-17T03:47:53.770Z,7.93
2018-08-17T03:50:22.265Z,8.50
2018-08-17T03:52:50.798Z,8.53
2018-08-17T03:55:19.384Z,9.30
2018-08-17T03:57:47.954Z,9.50
2018-08-17T04:00:16.459Z,9.77
2018-08-17T04:02:44.917Z,10.10
2018-08-17T04:05:13.413Z,10.20
2018-08-17T04:07:42.314Z,10.40
2018-08-17T04:10:10.868Z,10.27
2018-08-17T04:12:39.358Z,9.80
2018-08-17T04:15:08.573Z,8.40
2018-08-17T04:17:37.000Z,5.90
2018-08-17T04:20:05.428Z,4.90
2018-08-17T04:22:34.233Z,4.27
2018-08-17T04:25:02.928Z,5.00
2018-08-17T04:27:31.402Z,4.93
2018-08-17T04:29:59.850Z,4.63
2018-08-17T04:32:28.310Z,6.10
2018-08-17T04:34:56.829Z,4.53
2018-08-17T04:37:25.308Z,4.40
2018-08-17T04:39:53.792Z,4.63
2018-08-17T04:42:22.252Z,5.57
2018-08-17T04:44:50.860Z,5.83
2018-08-17T04:47:19.330Z,5.20
2018-08-17T04:49:47.832Z,4.93
2018-08-17T04:52:16.428Z,5.13
2018-08-17T04:54:45.134Z,5.07
2018-08-17T04:57:13.997Z,5.57
2018-08-17T04:59:42.439Z,5.50
2018-08-17T05:02:10.977Z,5.17
2018-08-17T05:04:39.452Z,5.20
2018-08-17T05:07:08.724Z,5.30
2018-08-17T05:09:37.171Z,5.13
2018-08-17T05:12:05.624Z,5.13
2018-08-17T05:14:34.212Z,4.60
2018-08-17T05:17:02.659Z,5.10
2018-08-17T05:19:31.271Z,4.93
2018-08-17T05:21:59.724Z,5.53
2018-08-17T05:24:28.308Z,5.67
2018-08-17T05:26:56.785Z,6.00
2018-08-17T05:29:25.282Z,5.30
2018-08-17T05:31:53.757Z,4.93
2018-08-17T05:34:22.184Z,5.53
2018-08-17T05:36:50.748Z,5.07
2018-08-17T05:39:19.223Z,5.60
2018-08-17T05:41:47.757Z,6.07
2018-08-17T05:44:16.197Z,7.23
2018-08-17T05:46:44.653Z,6.23
2018-08-17T05:49:13.097Z,5.23
2018-08-17T05:51:41.542Z,6.00
2018-08-17T05:54:10.073Z,5.80
2018-08-17T05:56:38.759Z,5.70
2018-08-17T05:59:07.304Z,5.30
2018-08-17T06:01:35.745Z,4.97
2018-08-17T06:04:04.342Z,5.13
2018-08-17T06:06:32.929Z,6.13
2018-08-17T06:09:01.400Z,5.97
2018-08-17T06:11:30.059Z,5.50
2018-08-17T06:13:58.485Z,5.60
2018-08-17T06:16:26.933Z,6.17
2018-08-17T06:18:55.469Z,5.77
2018-08-17T06:21:24.085Z,6.30
2018-08-17T06:23:53.860Z,5.83
2018-08-17T06:26:22.323Z,5.63
2018-08-17T06:28:50.792Z,5.20
2018-08-17T06:31:19.375Z,6.00
2018-08-17T06:33:47.862Z,5.67
2018-08-17T06:36:16.315Z,4.87
2018-08-17T06:38:45.142Z,5.27
2018-08-17T06:41:13.717Z,5.07
2018-08-17T06:43:42.160Z,4.83
2018-08-17T06:46:10.799Z,5.33
2018-08-17T06:48:39.309Z,5.37
2018-08-17T06:51:07.821Z,6.40
2018-08-17T06:53:36.232Z,6.00
2018-08-17T06:56:04.796Z,7.20
2018-08-17T06:58:33.438Z,7.60
2018-08-17T07:01:01.986Z,7.27
2018-08-17T07:03:30.723Z,7.43
2018-08-17T07:05:59.579Z,8.60
2018-08-17T07:08:28.060Z,8.50
2018-08-17T07:10:56.537Z,8.93
2018-08-17T07:13:24.984Z,8.87
2018-08-17T07:15:53.438Z,8.47
2018-08-17T07:18:22.066Z,10.00
2018-08-17T07:20:50.552Z,9.37
2018-08-17T07:23:19.142Z,10.63
2018-08-17T07:25:47.613Z,9.80
2018-08-17T07:28:16.174Z,10.47
2018-08-17T07:30:44.682Z,10.07
2018-08-17T07:33:13.127Z,10.23
2018-08-17T07:35:41.678Z,9.83
2018-08-17T07:38:10.341Z,10.03
2018-08-17T07:40:38.813Z,9.20
2018-08-17T07:43:07.820Z,8.70
2018-08-17T07:45:36.617Z,9.27
2018-08-17T07:48:05.219Z,9.20
2018-08-17T07:50:33.710Z,9.23
2018-08-17T07:53:02.202Z,9.17
2018-08-17T07:55:30.690Z,9.63
2018-08-17T07:57:59.232Z,9.77
2018-08-17T08:00:27.702Z,10.23
2018-08-17T08:02:56.158Z,10.87
2018-08-17T08:05:24.808Z,10.97
2018-08-17T08:07:53.368Z,10.60
2018-08-17T08:10:21.826Z,11.17
2018-08-17T08:12:50.304Z,11.97
2018-08-17T08:15:18.834Z,13.43
2018-08-17T08:17:47.448Z,12.83
2018-08-17T08:20:35.158Z,12.13
2018-08-17T08:23:15.279Z,13.93
2018-08-17T08:25:43.893Z,14.63
2018-08-17T08:28:12.394Z,12.00
2018-08-17T08:30:40.866Z,12.97
2018-08-17T08:33:09.352Z,13.07
2018-08-17T08:35:37.798Z,13.90
2018-08-17T08:38:06.538Z,14.27
2018-08-17T08:40:35.103Z,13.93
2018-08-17T08:43:03.688Z,11.20
2018-08-17T08:45:32.251Z,9.77
2018-08-17T08:48:00.674Z,11.40
2018-08-17T08:50:29.166Z,10.63
2018-08-17T08:52:57.762Z,10.53
2018-08-17T08:55:26.280Z,11.67
2018-08-17T08:57:54.723Z,10.70
2018-08-17T09:00:23.197Z,8.53
2018-08-17T09:02:51.681Z,6.97
2018-08-17T09:05:20.223Z,8.57
2018-08-17T09:07:48.794Z,8.20
2018-08-17T09:10:17.266Z,7.90
2018-08-17T09:12:45.914Z,6.23
2018-08-17T09:15:14.451Z,5.60
2018-08-17T09:17:43.779Z,5.50
2018-08-17T09:20:15.758Z,5.13
2018-08-17T09:22:44.697Z,5.73
2018-08-17T09:25:13.601Z,6.13
2018-08-17T09:27:42.956Z,5.60
2018-08-17T09:30:12.989Z,5.10
2018-08-17T09:32:41.925Z,5.10
2018-08-17T09:35:11.722Z,4.57
2018-08-17T09:37:40.358Z,4.07
2018-08-17T09:40:09.955Z,4.40
2018-08-17T09:42:38.435Z,3.87
2018-08-17T09:45:08.876Z,4.47
2018-08-17T09:47:37.367Z,4.70
2018-08-17T09:50:08.047Z,4.67
2018-08-17T09:52:36.649Z,4.27
2018-08-17T09:55:05.541Z,3.93
2018-08-17T09:57:34.161Z,4.23
2018-08-17T10:00:03.234Z,4.13
2018-08-17T10:02:37.119Z,4.00
2018-08-17T10:05:11.104Z,4.30
2018-08-17T10:07:44.968Z,3.57
2018-08-17T10:10:18.563Z,3.50
2018-08-17T10:12:48.451Z,3.40
2018-08-17T10:15:17.052Z,3.53
2018-08-17T10:17:45.846Z,3.37
2018-08-17T10:20:16.537Z,3.40
2018-08-17T10:22:45.673Z,2.93
2018-08-17T10:25:16.496Z,3.10
2018-08-17T10:27:47.127Z,3.30
2018-08-17T10:30:16.529Z,2.67
2018-08-17T10:32:50.406Z,2.77
2018-08-17T10:35:24.279Z,3.43
2018-08-17T10:37:54.689Z,3.30
2018-08-17T10:40:23.859Z,2.80
2018-08-17T10:42:52.438Z,2.50
2018-08-17T10:45:22.489Z,3.23
2018-08-17T10:47:51.721Z,2.60
2018-08-17T10:50:21.390Z,2.97
2018-08-17T10:52:51.328Z,3.10
2018-08-17T10:55:20.524Z,2.43
2018-08-17T10:57:48.961Z,2.67
2018-08-17T11:00:19.736Z,2.63
2018-08-17T11:02:48.525Z,2.87
2018-08-17T11:05:17.907Z,2.90
2018-08-17T11:07:47.750Z,2.90
2018-08-17T11:10:16.251Z,3.07
2018-08-17T11:12:46.853Z,2.57
2018-08-17T11:15:15.437Z,2.80
2018-08-17T11:17:58.156Z,2.87
2018-08-17T11:20:27.236Z,2.97
2018-08-17T11:22:55.734Z,2.67
2018-08-17T11:25:24.300Z,2.70
2018-08-17T11:27:52.990Z,3.10
2018-08-17T11:30:21.450Z,3.00
2018-08-17T11:32:49.910Z,2.97
2018-08-17T11:35:18.430Z,2.60
2018-08-17T11:37:46.876Z,2.97
2018-08-17T11:40:15.357Z,3.10
2018-08-17T11:42:45.245Z,2.70
2018-08-17T11:45:15.967Z,3.20
2018-08-17T11:47:45.046Z,2.90
2018-08-17T11:50:14.783Z,2.90
2018-08-17T11:52:59.897Z,2.70
2018-08-17T11:55:30.377Z,3.13
2018-08-17T11:57:58.875Z,2.50
2018-08-17T12:00:31.940Z,2.60
2018-08-17T12:03:00.435Z,2.53
2018-08-17T12:05:28.900Z,2.97
2018-08-17T12:07:57.382Z,2.60
2018-08-17T12:10:26.038Z,2.77
2018-08-17T12:12:55.524Z,2.77
2018-08-17T12:15:23.966Z,2.63
2018-08-17T12:17:52.418Z,2.50
2018-08-17T12:20:20.871Z,2.90
2018-08-17T12:22:49.377Z,3.07
2018-08-17T12:25:17.850Z,2.73
2018-08-17T12:27:52.588Z,3.20
2018-08-17T12:30:21.468Z,2.80
2018-08-17T12:32:49.949Z,3.03
2018-08-17T12:35:18.424Z,2.70
2018-08-17T12:37:47.014Z,2.60
2018-08-17T12:40:15.621Z,2.37
2018-08-17T12:42:44.010Z,2.87
2018-08-17T12:45:17.588Z,3.30
2018-08-17T12:47:46.065Z,2.97
2018-08-17T12:50:14.516Z,3.10
2018-08-17T12:52:42.973Z,2.60
2018-08-17T12:55:11.518Z,3.03
2018-08-17T12:57:40.850Z,3.13
2018-08-17T13:00:09.370Z,2.57
2018-08-17T13:02:37.923Z,2.83
2018-08-17T13:05:06.513Z,2.73
2018-08-17T13:07:35.075Z,2.80
2018-08-17T13:10:03.835Z,3.20
2018-08-17T13:12:38.888Z,2.67
2018-08-17T13:15:07.345Z,2.50
2018-08-17T13:17:41.285Z,3.10
2018-08-17T13:20:09.809Z,2.87
2018-08-17T13:22:38.314Z,2.80
2018-08-17T13:25:07.003Z,3.00
2018-08-17T13:27:35.603Z,2.57
2018-08-17T13:30:04.623Z,3.30
2018-08-17T13:32:33.089Z,3.20
2018-08-17T13:35:01.591Z,2.97
2018-08-17T13:37:30.189Z,2.80
2018-08-17T13:39:58.812Z,3.20
2018-08-17T13:42:27.785Z,3.10
2018-08-17T13:44:56.258Z,3.13
2018-08-17T13:47:25.029Z,3.60
2018-08-17T13:49:53.806Z,3.50
2018-08-17T13:52:22.304Z,3.20
2018-08-17T13:54:50.780Z,2.70
2018-08-17T13:57:19.365Z,3.03
2018-08-17T13:59:47.849Z,2.40
2018-08-17T14:02:16.358Z,2.60
2018-08-17T14:04:44.832Z,2.70
2018-08-17T14:07:13.350Z,2.70
2018-08-17T14:09:41.942Z,2.63
2018-08-17T14:12:10.777Z,2.90
2018-08-17T14:14:39.254Z,2.70
2018-08-17T14:17:07.767Z,2.60
2018-08-17T14:19:36.321Z,2.80
2018-08-17T14:22:04.917Z,3.23
2018-08-17T14:24:33.406Z,3.40
2018-08-17T14:27:01.900Z,2.40
2018-08-17T14:29:30.448Z,3.10
2018-08-17T14:31:59.023Z,3.27
2018-08-17T14:34:27.608Z,3.10
2018-08-17T14:36:56.074Z,3.03
2018-08-17T14:39:24.589Z,3.47
2018-08-17T14:41:57.042Z,2.77
2018-08-17T14:44:26.253Z,2.97
2018-08-17T14:46:55.128Z,2.70
2018-08-17T14:49:24.164Z,2.60
2018-08-17T14:51:52.737Z,2.40
2018-08-17T14:54:21.307Z,3.17
2018-08-17T14:56:49.810Z,2.67
2018-08-17T14:59:18.292Z,3.00
2018-08-17T15:01:47.170Z,2.50
2018-08-17T15:04:15.722Z,2.77
2018-08-17T15:06:44.210Z,2.53
2018-08-17T15:09:13.833Z,2.93
2018-08-17T15:11:43.268Z,2.50
2018-08-17T15:14:13.990Z,3.10
2018-08-17T15:16:43.085Z,2.60
2018-08-17T15:19:11.772Z,2.57
2018-08-17T15:21:40.697Z,2.73
2018-08-17T15:24:09.551Z,2.50
2018-08-17T15:26:38.133Z,3.00
2018-08-17T15:29:06.645Z,2.30
2018-08-17T15:31:35.865Z,2.57
2018-08-17T15:34:04.503Z,2.57
2018-08-17T15:36:33.153Z,2.10
2018-08-17T15:39:01.602Z,2.63
2018-08-17T15:41:30.154Z,2.50
2018-08-17T15:43:58.861Z,2.60
2018-08-17T15:46:27.501Z,2.00
2018-08-17T15:48:57.063Z,2.00
2018-08-17T15:51:25.665Z,2.40
2018-08-17T15:53:54.231Z,2.00
2018-08-17T15:56:22.705Z,2.20
2018-08-17T15:58:51.367Z,2.13
2018-08-17T16:01:19.976Z,2.30
2018-08-17T16:03:48.475Z,2.20
2018-08-17T16:06:17.013Z,2.10
2018-08-17T16:08:45.528Z,2.10
2018-08-17T16:11:14.202Z,2.13
2018-08-17T16:13:42.682Z,2.23
2018-08-17T16:16:11.187Z,1.83
2018-08-17T16:18:39.663Z,1.90
2018-08-17T16:21:08.149Z,2.43
2018-08-17T16:23:36.610Z,2.40
2018-08-17T16:26:05.329Z,2.00
2018-08-17T16:28:33.863Z,2.37
2018-08-17T16:31:02.323Z,2.30
2018-08-17T16:33:30.838Z,2.20
2018-08-17T16:35:59.458Z,2.40
2018-08-17T16:38:27.991Z,2.23
2018-08-17T16:40:56.436Z,2.30
2018-08-17T16:43:36.408Z,1.80
2018-08-17T16:46:04.914Z,2.00
2018-08-17T16:48:33.384Z,1.60
2018-08-17T16:51:01.855Z,1.73
2018-08-17T16:53:30.355Z,2.23
2018-08-17T16:55:58.883Z,1.77
2018-08-17T16:58:27.555Z,1.83
2018-08-17T17:00:56.182Z,1.80
2018-08-17T17:03:24.653Z,2.17
2018-08-17T17:06:01.199Z,1.70
2018-08-17T17:08:30.083Z,1.70
2018-08-17T17:10:58.967Z,1.50
2018-08-17T17:13:27.549Z,1.50
2018-08-17T17:15:56.010Z,1.77
2018-08-17T17:18:24.572Z,1.50
2018-08-17T17:20:53.154Z,1.80
2018-08-17T17:23:21.650Z,1.63
2018-08-17T17:25:50.127Z,1.70
2018-08-17T17:28:18.888Z,1.77
2018-08-17T17:30:50.698Z,1.50
2018-08-17T17:33:19.416Z,1.63
2018-08-17T17:35:48.092Z,1.70
2018-08-17T17:38:16.710Z,1.63
2018-08-17T17:40:45.376Z,1.63
2018-08-17T17:43:13.942Z,1.97
2018-08-17T17:45:42.449Z,1.43
2018-08-17T17:48:11.132Z,1.60
2018-08-17T17:50:39.726Z,1.50
2018-08-17T17:53:08.270Z,1.40
2018-08-17T17:55:43.140Z,1.30
2018-08-17T17:58:12.067Z,1.60
2018-08-17T18:00:40.602Z,1.40
2018-08-17T18:03:09.194Z,1.30
2018-08-17T18:05:37.645Z,1.30
2018-08-17T18:08:11.606Z,1.43
2018-08-17T18:10:40.116Z,1.60
2018-08-17T18:13:08.717Z,1.53
2018-08-17T18:15:37.251Z,1.57
2018-08-17T18:18:05.877Z,1.53
2018-08-17T18:20:34.356Z,1.40
2018-08-17T18:23:02.864Z,1.53
2018-08-17T18:25:31.326Z,1.40
2018-08-17T18:27:59.942Z,1.60
2018-08-17T18:30:29.249Z,1.77
2018-08-17T18:32:57.825Z,1.30
2018-08-17T18:35:26.402Z,1.40
2018-08-17T18:37:54.920Z,1.70
2018-08-17T18:40:23.406Z,1.43
2018-08-17T18:42:51.874Z,1.63
2018-08-17T18:45:20.369Z,1.60
2018-08-17T18:47:48.847Z,1.70
2018-08-17T18:50:17.406Z,1.90
2018-08-17T18:52:46.246Z,1.50
2018-08-17T18:55:14.680Z,1.50
2018-08-17T18:57:43.160Z,1.47
2018-08-17T19:00:13.267Z,1.57
2018-08-17T19:02:42.056Z,1.50
2018-08-17T19:05:11.268Z,1.30
2018-08-17T19:07:40.157Z,1.60
2018-08-17T19:10:09.790Z,1.80
2018-08-17T19:12:38.567Z,1.70
2018-08-17T19:15:09.358Z,1.70
2018-08-17T19:17:37.851Z,1.50
2018-08-17T19:20:09.461Z,1.90
2018-08-17T19:22:39.788Z,1.60
2018-08-17T19:25:09.687Z,1.70
2018-08-17T19:27:39.186Z,2.13
2018-08-17T19:30:48.326Z,1.80
2018-08-17T19:33:16.848Z,1.67
2018-08-17T19:35:47.638Z,1.50
2018-08-17T19:38:16.211Z,1.60
2018-08-17T19:40:44.665Z,1.60
2018-08-17T19:43:13.132Z,1.70
2018-08-17T19:45:41.602Z,1.60
2018-08-17T19:48:10.366Z,1.50
2018-08-17T19:50:38.877Z,1.80
2018-08-17T19:53:07.541Z,1.60
2018-08-17T19:55:36.090Z,2.07
2018-08-17T19:58:04.615Z,1.70
2018-08-17T20:00:33.073Z,1.70
2018-08-17T20:03:01.517Z,1.80
2018-08-17T20:05:29.952Z,1.70
2018-08-17T20:07:58.525Z,1.73
2018-08-17T20:10:26.971Z,1.80
2018-08-17T20:12:55.617Z,1.63
2018-08-17T20:15:24.448Z,1.83
2018-08-17T20:17:53.271Z,1.83
2018-08-17T20:20:21.859Z,1.70
2018-08-17T20:22:50.458Z,1.80
2018-08-17T20:25:19.093Z,1.70
2018-08-17T20:27:47.591Z,1.80
2018-08-17T20:30:22.275Z,1.90
2018-08-17T20:32:50.815Z,1.80
2018-08-17T20:35:19.694Z,1.50
2018-08-17T20:37:50.672Z,2.10
2018-08-17T20:40:19.633Z,1.53
2018-08-17T20:42:48.549Z,1.40
2018-08-17T20:45:17.126Z,1.93
2018-08-17T20:47:45.608Z,1.53
2018-08-17T20:50:19.316Z,1.80
2018-08-17T20:52:58.034Z,1.77
2018-08-17T20:55:26.907Z,2.00
2018-08-17T20:57:56.608Z,1.83
2018-08-17T21:00:26.631Z,1.77
2018-08-17T21:02:55.450Z,1.70
2018-08-17T21:05:24.140Z,1.60
2018-08-17T21:07:52.784Z,1.60
2018-08-17T21:10:21.340Z,1.60
2018-08-17T21:12:51.892Z,1.90
2018-08-17T21:15:20.373Z,1.80
2018-08-17T21:17:49.507Z,1.57
2018-08-17T21:20:18.020Z,1.60
2018-08-17T21:22:46.776Z,1.73
2018-08-17T21:25:15.362Z,1.70
2018-08-17T21:27:43.856Z,1.70
2018-08-17T21:30:12.310Z,1.90
2018-08-17T21:32:40.814Z,1.90
2018-08-17T21:35:09.369Z,2.10
2018-08-17T21:37:38.176Z,1.80
2018-08-17T21:40:13.873Z,1.73
2018-08-17T21:42:42.600Z,1.77
2018-08-17T21:45:11.105Z,1.80
2018-08-17T21:47:39.566Z,1.80
2018-08-17T21:50:13.430Z,2.17
2018-08-17T21:52:42.789Z,1.97
2018-08-17T21:55:11.269Z,1.80
2018-08-17T21:57:39.729Z,2.20
2018-08-17T22:00:12.349Z,1.97
2018-08-17T22:02:40.787Z,1.80
2018-08-17T22:05:14.339Z,1.80
2018-08-17T22:07:43.006Z,2.00
2018-08-17T22:10:11.568Z,2.03
2018-08-17T22:12:40.054Z,1.93
2018-08-17T22:15:08.539Z,1.90
2018-08-17T22:17:38.595Z,2.00
2018-08-17T22:20:09.611Z,2.10
2018-08-17T22:22:38.382Z,2.20
2018-08-17T22:25:13.031Z,2.27
2018-08-17T22:27:41.545Z,2.10
2018-08-17T22:30:15.946Z,1.87
2018-08-17T22:32:44.697Z,1.93
2018-08-17T22:35:13.344Z,2.00
2018-08-17T22:37:41.867Z,2.30
2018-08-17T22:40:10.437Z,2.40
2018-08-17T22:42:38.953Z,2.80
2018-08-17T22:45:07.665Z,2.13
2018-08-17T22:47:36.205Z,2.20
2018-08-17T22:50:05.097Z,2.33
2018-08-17T22:52:34.493Z,2.30
2018-08-17T22:55:04.673Z,2.47
2018-08-17T22:57:33.189Z,2.33
2018-08-17T23:00:19.321Z,2.60
2018-08-17T23:02:49.000Z,2.53
2018-08-17T23:05:20.080Z,2.30
2018-08-17T23:07:48.617Z,2.20
2018-08-17T23:10:21.468Z,2.13
2018-08-17T23:12:51.250Z,2.60
2018-08-17T23:15:19.837Z,2.17
2018-08-17T23:17:58.010Z,2.37
2018-08-17T23:20:32.057Z,2.00
2018-08-17T23:23:01.673Z,2.00
2018-08-17T23:25:30.540Z,2.03
2018-08-17T23:27:59.180Z,2.07
2018-08-17T23:30:27.712Z,2.10
2018-08-17T23:32:56.311Z,2.03
2018-08-17T23:35:24.854Z,2.10
2018-08-17T23:37:53.344Z,2.33
2018-08-17T23:40:21.952Z,2.20
2018-08-17T23:42:50.504Z,2.27
2018-08-17T23:45:19.356Z,2.10
2018-08-17T23:47:47.838Z,2.00
2018-08-17T23:50:17.026Z,2.23
2018-08-17T23:52:45.596Z,3.20
2018-08-17T23:55:16.057Z,2.30
2018-08-17T23:57:44.559Z,2.00
